createdAt,value
2023-02-27T00:01:13.425Z,78.36
2023-02-27T00:03:39.815Z,78.14
2023-02-27T00:06:06.378Z,78.59
2023-02-27T00:08:32.887Z,78.43
2023-02-27T00:10:59.400Z,78.12
2023-02-27T00:13:25.741Z,78.17
2023-02-27T00:15:52.158Z,78.71
2023-02-27T00:18:18.582Z,78.74
2023-02-27T00:20:44.947Z,78.40
2023-02-27T00:23:11.397Z,78.99
2023-02-27T00:25:37.761Z,79.10
2023-02-27T00:28:04.950Z,79.20
2023-02-27T00:30:31.389Z,79.24
2023-02-27T00:32:57.967Z,79.49
2023-02-27T00:35:24.505Z,79.49
2023-02-27T00:37:50.888Z,79.50
2023-02-27T00:40:17.742Z,79.23
2023-02-27T00:42:46.203Z,79.38
2023-02-27T00:45:12.695Z,79.36
2023-02-27T00:47:39.077Z,79.09
2023-02-27T00:50:06.069Z,79.62
2023-02-27T00:52:33.814Z,79.89
2023-02-27T00:55:00.839Z,79.14
2023-02-27T00:57:27.533Z,79.34
2023-02-27T00:59:53.896Z,79.38
2023-02-27T01:02:20.327Z,79.73
2023-02-27T01:04:46.931Z,79.75
2023-02-27T01:07:13.430Z,79.72
2023-02-27T01:09:39.829Z,79.47
2023-02-27T01:12:08.638Z,79.47
2023-02-27T01:14:35.501Z,79.46
2023-02-27T01:17:02.439Z,79.91
2023-02-27T01:19:28.941Z,79.54
2023-02-27T01:21:55.300Z,79.41
2023-02-27T01:24:24.959Z,79.60
2023-02-27T01:26:52.724Z,79.82
2023-02-27T01:29:27.454Z,79.64
2023-02-27T01:32:04.396Z,79.70
2023-02-27T01:34:57.758Z,79.59
2023-02-27T01:37:24.311Z,80.00
2023-02-27T01:40:04.369Z,80.00
2023-02-27T01:42:31.013Z,79.68
2023-02-27T01:45:36.840Z,79.84
2023-02-27T01:48:21.794Z,80.27
2023-02-27T01:50:57.660Z,79.61
2023-02-27T01:53:26.177Z,79.75
2023-02-27T01:56:07.473Z,79.64
2023-02-27T01:58:34.625Z,80.02
2023-02-27T02:01:01.238Z,79.71
2023-02-27T02:03:43.784Z,80.16
2023-02-27T02:06:15.571Z,80.34
2023-02-27T02:08:45.697Z,80.35
2023-02-27T02:11:15.077Z,80.56
2023-02-27T02:13:55.364Z,80.73
2023-02-27T02:16:33.883Z,80.50
2023-02-27T02:19:08.075Z,80.47
2023-02-27T02:21:41.487Z,80.83
2023-02-27T02:24:47.444Z,80.37
2023-02-27T02:27:42.207Z,80.50
2023-02-27T02:30:27.664Z,80.24
2023-02-27T02:33:20.482Z,80.76
2023-02-27T02:36:17.648Z,80.70
2023-02-27T02:38:59.207Z,80.87
2023-02-27T02:41:46.377Z,80.97
2023-02-27T02:44:27.538Z,80.68
2023-02-27T02:47:21.904Z,81.10
2023-02-27T02:50:14.574Z,80.68
2023-02-27T02:52:59.277Z,81.30
2023-02-27T02:55:56.878Z,81.21
2023-02-27T02:58:43.524Z,81.23
2023-02-27T03:01:22.129Z,81.48
2023-02-27T03:03:55.204Z,81.50
2023-02-27T03:06:30.756Z,81.77
2023-02-27T03:09:11.321Z,81.58
2023-02-27T03:11:42.978Z,81.91
2023-02-27T03:14:37.052Z,81.86
2023-02-27T03:17:10.967Z,82.20
2023-02-27T03:19:43.564Z,82.12
2023-02-27T03:22:26.691Z,81.86
2023-02-27T03:24:57.394Z,81.69
2023-02-27T03:27:28.063Z,81.88
2023-02-27T03:30:02.275Z,81.75
2023-02-27T03:32:56.868Z,82.20
2023-02-27T03:35:31.558Z,82.41
2023-02-27T03:38:21.144Z,82.47
2023-02-27T03:41:11.583Z,82.21
2023-02-27T03:43:47.481Z,82.30
2023-02-27T03:46:27.961Z,82.56
2023-02-27T03:48:54.496Z,82.29
2023-02-27T03:51:47.604Z,82.27
2023-02-27T03:54:22.979Z,82.61
2023-02-27T03:57:07.694Z,82.47
2023-02-27T03:59:37.264Z,82.39
2023-02-27T04:02:05.157Z,82.28
2023-02-27T04:04:32.874Z,82.18
2023-02-27T04:07:28.795Z,81.86
2023-02-27T04:10:16.647Z,82.04
2023-02-27T04:13:13.221Z,82.27
2023-02-27T04:15:46.707Z,82.44
2023-02-27T04:18:30.512Z,82.51
2023-02-27T04:21:11.321Z,81.98
2023-02-27T04:24:32.315Z,82.25
2023-02-27T04:27:24.455Z,82.81
2023-02-27T04:30:16.151Z,82.48
2023-02-27T04:32:59.766Z,82.32
2023-02-27T04:36:02.413Z,82.25
2023-02-27T04:54:23.029Z,82.33
2023-02-27T04:57:02.214Z,81.96
2023-02-27T04:59:36.534Z,82.12
2023-02-27T05:02:14.357Z,82.57
2023-02-27T05:04:46.215Z,82.24
2023-02-27T05:07:19.002Z,82.45
2023-02-27T05:09:52.428Z,82.65
2023-02-27T05:12:32.575Z,82.26
2023-02-27T05:15:51.892Z,82.62
2023-02-27T05:18:21.762Z,82.70
2023-02-27T05:20:57.554Z,82.66
2023-02-27T05:23:26.865Z,82.90
2023-02-27T05:26:14.135Z,82.76
2023-02-27T05:29:32.724Z,82.98
2023-02-27T05:32:15.159Z,83.03
2023-02-27T05:35:19.775Z,83.20
2023-02-27T05:37:52.257Z,82.78
2023-02-27T05:40:24.885Z,83.16
2023-02-27T05:43:00.326Z,83.25
2023-02-27T05:45:38.950Z,83.61
2023-02-27T05:48:29.672Z,83.16
2023-02-27T05:51:16.710Z,83.27
2023-02-27T05:53:50.252Z,83.39
2023-02-27T06:01:07.825Z,83.18
2023-02-27T06:03:41.032Z,83.16
2023-02-27T06:06:18.971Z,83.51
2023-02-27T06:08:46.245Z,83.67
2023-02-27T06:11:13.349Z,83.51
2023-02-27T06:13:42.078Z,83.56
2023-02-27T06:16:11.454Z,83.93
2023-02-27T06:18:37.965Z,83.58
2023-02-27T06:21:36.638Z,83.91
2023-02-27T06:24:15.440Z,83.82
2023-02-27T06:26:41.909Z,83.49
2023-02-27T06:29:08.330Z,83.58
2023-02-27T06:31:34.841Z,83.55
2023-02-27T06:34:06.090Z,83.50
2023-02-27T06:36:32.579Z,83.74
2023-02-27T06:38:59.119Z,83.79
2023-02-27T06:41:29.146Z,83.98
2023-02-27T06:43:56.496Z,83.48
2023-02-27T06:46:23.134Z,83.42
2023-02-27T06:48:49.627Z,83.47
2023-02-27T06:51:16.111Z,83.68
2023-02-27T06:53:44.789Z,83.64
2023-02-27T06:56:11.282Z,83.82
2023-02-27T06:58:40.816Z,83.86
2023-02-27T07:01:07.373Z,84.13
2023-02-27T07:03:33.943Z,84.08
2023-02-27T07:06:02.886Z,83.88
2023-02-27T07:08:29.427Z,83.88
2023-02-27T07:10:55.993Z,83.85
2023-02-27T07:13:22.547Z,84.42
2023-02-27T07:15:50.718Z,84.23
2023-02-27T07:18:25.650Z,84.18
2023-02-27T07:20:52.787Z,84.20
2023-02-27T07:23:19.348Z,84.47
2023-02-27T07:25:53.945Z,84.29
2023-02-27T07:28:20.593Z,84.08
2023-02-27T07:30:56.486Z,84.08
2023-02-27T07:33:23.826Z,84.43
2023-02-27T07:35:50.416Z,84.51
2023-02-27T07:38:19.019Z,83.84
2023-02-27T07:40:46.499Z,83.81
2023-02-27T07:43:13.033Z,83.93
2023-02-27T07:45:39.533Z,83.48
2023-02-27T07:48:09.265Z,83.29
2023-02-27T07:50:35.685Z,83.15
2023-02-27T07:53:02.131Z,82.92
2023-02-27T07:55:28.646Z,82.92
2023-02-27T07:57:55.029Z,82.48
2023-02-27T08:00:22.171Z,81.95
2023-02-27T08:02:48.588Z,81.75
2023-02-27T08:05:15.193Z,81.06
2023-02-27T08:07:41.658Z,81.09
2023-02-27T08:10:08.707Z,80.14
2023-02-27T08:12:35.163Z,80.36
2023-02-27T08:15:01.654Z,79.85
2023-02-27T08:17:28.098Z,79.71
2023-02-27T08:19:54.498Z,78.72
2023-02-27T08:22:21.527Z,77.83
2023-02-27T08:24:47.967Z,77.83
2023-02-27T08:27:15.031Z,77.71
2023-02-27T08:29:43.404Z,77.58
2023-02-27T08:32:09.944Z,76.20
2023-02-27T08:34:36.522Z,75.83
2023-02-27T08:37:03.560Z,75.06
2023-02-27T08:39:29.957Z,75.33
2023-02-27T08:42:03.790Z,74.77
2023-02-27T08:44:30.296Z,73.88
2023-02-27T08:46:56.789Z,73.12
2023-02-27T08:49:25.361Z,73.16
2023-02-27T08:51:52.560Z,72.83
2023-02-27T08:54:19.183Z,72.44
2023-02-27T08:57:08.681Z,72.53
2023-02-27T08:59:35.431Z,72.94
2023-02-27T09:02:27.861Z,72.54
2023-02-27T09:04:54.346Z,71.49
2023-02-27T09:07:20.862Z,71.81
2023-02-27T09:09:50.600Z,70.93
2023-02-27T09:12:17.049Z,70.74
2023-02-27T09:14:44.118Z,70.79
2023-02-27T09:17:10.613Z,70.47
2023-02-27T09:19:37.440Z,70.30
2023-02-27T09:22:03.894Z,70.21
2023-02-27T09:24:30.429Z,69.36
2023-02-27T09:26:56.996Z,69.46
2023-02-27T09:29:24.077Z,69.22
2023-02-27T09:31:50.716Z,68.20
2023-02-27T09:34:17.363Z,67.64
2023-02-27T09:36:45.871Z,67.91
2023-02-27T09:39:12.426Z,67.16
2023-02-27T09:41:57.980Z,66.18
2023-02-27T09:44:45.132Z,66.38
2023-02-27T09:47:21.101Z,66.24
2023-02-27T09:50:00.726Z,66.03
2023-02-27T09:52:29.854Z,65.88
2023-02-27T09:54:56.805Z,66.20
2023-02-27T09:58:08.161Z,65.17
2023-02-27T10:00:48.215Z,65.58
2023-02-27T10:03:49.877Z,64.79
2023-02-27T10:06:28.371Z,63.69
2023-02-27T10:09:21.705Z,63.99
2023-02-27T10:12:10.973Z,63.04
2023-02-27T10:14:46.529Z,62.09
2023-02-27T10:17:39.539Z,62.19
2023-02-27T10:20:20.423Z,61.97
2023-02-27T10:22:48.865Z,61.75
2023-02-27T10:25:30.692Z,60.70
2023-02-27T10:28:11.274Z,60.00
2023-02-27T10:30:38.104Z,60.09
2023-02-27T10:33:13.891Z,59.73
2023-02-27T10:35:44.618Z,60.07
2023-02-27T10:38:27.019Z,60.16
2023-02-27T10:41:03.527Z,60.26
2023-02-27T10:43:30.280Z,60.18
2023-02-27T10:46:23.265Z,60.07
2023-02-27T10:48:50.341Z,59.08
2023-02-27T10:51:38.348Z,57.89
2023-02-27T10:54:23.460Z,57.86
2023-02-27T10:57:02.521Z,57.88
2023-02-27T10:59:33.502Z,56.84
2023-02-27T11:02:45.591Z,56.40
2023-02-27T11:05:29.535Z,56.03
2023-02-27T11:08:09.630Z,55.47
2023-02-27T11:10:59.106Z,55.57
2023-02-27T11:13:29.010Z,55.29
2023-02-27T11:16:10.849Z,55.62
2023-02-27T11:18:40.450Z,55.16
2023-02-27T11:21:20.140Z,55.91
2023-02-27T11:24:07.706Z,55.17
2023-02-27T11:26:37.348Z,55.82
2023-02-27T11:29:12.948Z,54.76
2023-02-27T11:31:39.938Z,55.51
2023-02-27T11:34:08.314Z,54.83
2023-02-27T11:36:44.675Z,54.42
2023-02-27T11:39:48.907Z,54.27
2023-02-27T11:42:37.008Z,54.60
2023-02-27T11:45:03.689Z,53.92
2023-02-27T11:47:37.237Z,53.89
2023-02-27T11:50:22.424Z,53.37
2023-02-27T11:53:28.466Z,53.43
2023-02-27T11:56:02.353Z,53.05
2023-02-27T11:58:35.407Z,52.22
2023-02-27T12:01:07.451Z,53.60
2023-02-27T12:03:55.999Z,53.07
2023-02-27T12:06:29.484Z,52.45
2023-02-27T12:09:02.895Z,52.62
2023-02-27T12:11:40.795Z,52.12
2023-02-27T12:14:41.004Z,52.29
2023-02-27T12:17:20.248Z,52.19
2023-02-27T12:20:04.731Z,51.37
2023-02-27T12:22:37.483Z,51.74
2023-02-27T12:25:33.852Z,52.15
2023-02-27T12:28:08.896Z,51.13
2023-02-27T12:31:01.823Z,52.13
2023-02-27T12:33:51.576Z,51.68
2023-02-27T12:36:18.174Z,51.21
2023-02-27T12:38:44.706Z,51.78
2023-02-27T12:41:42.324Z,51.32
2023-02-27T12:44:18.938Z,51.14
2023-02-27T12:46:54.396Z,51.39
2023-02-27T12:49:31.784Z,51.47
2023-02-27T12:52:26.602Z,51.57
2023-02-27T12:55:06.562Z,52.81
2023-02-27T12:58:15.171Z,53.35
2023-02-27T13:01:00.908Z,53.35
2023-02-27T13:03:48.917Z,53.14
2023-02-27T13:06:29.589Z,52.53
2023-02-27T13:09:33.278Z,53.11
2023-02-27T13:12:18.054Z,52.91
2023-02-27T13:15:30.938Z,54.04
2023-02-27T13:18:30.422Z,53.65
2023-02-27T13:21:04.584Z,54.26
2023-02-27T13:23:36.384Z,53.82
2023-02-27T13:26:12.990Z,54.31
2023-02-27T13:28:40.036Z,53.86
2023-02-27T13:31:27.203Z,54.28
2023-02-27T13:34:13.741Z,54.59
2023-02-27T13:36:52.514Z,54.88
2023-02-27T13:39:51.803Z,54.80
2023-02-27T13:42:27.293Z,54.40
2023-02-27T13:44:58.357Z,54.72
2023-02-27T13:47:30.880Z,54.45
2023-02-27T13:49:59.652Z,54.45
2023-02-27T13:52:31.231Z,54.48
2023-02-27T13:55:06.324Z,54.22
2023-02-27T13:57:38.492Z,54.07
2023-02-27T14:00:26.560Z,53.35
2023-02-27T14:03:06.227Z,52.32
2023-02-27T14:05:45.257Z,52.52
2023-02-27T14:08:11.573Z,52.86
2023-02-27T14:10:40.278Z,52.94
2023-02-27T14:13:45.068Z,53.65
2023-02-27T14:16:32.697Z,53.26
2023-02-27T14:19:00.830Z,54.23
2023-02-27T14:21:49.804Z,53.71
2023-02-27T14:24:18.350Z,53.10
2023-02-27T14:26:46.677Z,52.93
2023-02-27T14:29:23.440Z,53.01
2023-02-27T14:31:51.884Z,52.62
2023-02-27T14:34:21.679Z,52.50
2023-02-27T14:36:54.900Z,52.95
2023-02-27T14:39:23.439Z,53.18
2023-02-27T14:42:12.626Z,53.92
2023-02-27T14:44:43.631Z,53.25
2023-02-27T14:47:18.558Z,53.15
2023-02-27T14:49:50.370Z,53.11
2023-02-27T14:52:23.312Z,53.73
2023-02-27T14:54:50.346Z,54.14
2023-02-27T14:57:23.679Z,53.90
2023-02-27T14:59:54.605Z,53.77
2023-02-27T15:02:25.457Z,54.19
2023-02-27T15:05:13.608Z,54.01
2023-02-27T15:07:40.424Z,53.65
2023-02-27T15:10:09.660Z,53.91
2023-02-27T15:12:39.771Z,54.24
2023-02-27T15:15:09.043Z,54.26
2023-02-27T15:17:41.099Z,54.88
2023-02-27T15:20:32.216Z,54.59
2023-02-27T15:23:01.498Z,54.44
2023-02-27T15:25:30.851Z,55.17
2023-02-27T15:28:21.820Z,54.72
2023-02-27T15:30:49.497Z,54.54
2023-02-27T15:33:16.943Z,54.82
2023-02-27T15:35:45.699Z,54.87
2023-02-27T15:38:31.392Z,55.52
2023-02-27T15:40:59.704Z,55.82
2023-02-27T15:43:27.710Z,55.78
2023-02-27T15:45:54.772Z,56.35
2023-02-27T15:48:21.641Z,56.35
2023-02-27T15:50:52.625Z,55.96
2023-02-27T15:53:22.082Z,55.96
2023-02-27T15:55:55.034Z,56.38
2023-02-27T15:59:00.233Z,56.55
2023-02-27T16:01:30.536Z,56.19
2023-02-27T16:03:59.771Z,56.56
2023-02-27T16:06:29.475Z,56.42
2023-02-27T16:09:19.875Z,56.57
2023-02-27T16:11:46.436Z,56.84
2023-02-27T16:14:39.155Z,57.35
2023-02-27T16:17:22.862Z,57.07
2023-02-27T16:19:49.246Z,56.77
2023-02-27T16:22:17.734Z,56.92
2023-02-27T16:24:44.966Z,56.70
2023-02-27T16:27:26.635Z,57.08
2023-02-27T16:29:57.216Z,57.10
2023-02-27T16:32:29.320Z,57.07
2023-02-27T16:35:05.937Z,57.45
2023-02-27T16:37:38.414Z,58.33
2023-02-27T16:40:19.710Z,57.93
2023-02-27T16:42:46.449Z,58.05
2023-02-27T16:45:49.513Z,58.35
2023-02-27T16:48:15.937Z,58.17
2023-02-27T16:50:43.046Z,58.30
2023-02-27T16:53:09.567Z,58.50
2023-02-27T16:55:39.775Z,58.66
2023-02-27T16:58:06.683Z,58.93
2023-02-27T17:00:34.155Z,58.92
2023-02-27T17:03:01.150Z,59.39
2023-02-27T17:05:27.531Z,59.51
2023-02-27T17:07:53.908Z,59.35
2023-02-27T17:10:24.514Z,60.33
2023-02-27T17:12:51.411Z,60.72
2023-02-27T17:15:18.431Z,60.59
2023-02-27T17:18:30.141Z,60.05
2023-02-27T17:21:03.791Z,61.33
2023-02-27T17:23:33.459Z,61.36
2023-02-27T17:26:07.921Z,62.12
2023-02-27T17:28:40.398Z,62.31
2023-02-27T17:31:15.204Z,62.68
2023-02-27T17:33:42.822Z,63.20
2023-02-27T17:36:23.912Z,63.60
2023-02-27T17:39:00.841Z,64.00
2023-02-27T17:41:28.490Z,64.61
2023-02-27T17:43:56.502Z,65.09
2023-02-27T17:46:25.700Z,64.88
2023-02-27T17:48:52.656Z,65.29
2023-02-27T17:51:19.555Z,65.25
2023-02-27T17:53:46.202Z,66.27
2023-02-27T17:56:13.391Z,66.30
2023-02-27T17:58:40.620Z,66.74
2023-02-27T18:01:09.518Z,67.14
2023-02-27T18:03:36.024Z,67.41
2023-02-27T18:06:04.251Z,67.97
2023-02-27T18:08:31.610Z,68.10
2023-02-27T18:10:58.768Z,68.24
2023-02-27T18:13:27.217Z,68.49
2023-02-27T18:15:55.238Z,69.22
2023-02-27T18:18:24.219Z,69.44
2023-02-27T18:21:06.427Z,69.82
2023-02-27T18:23:32.852Z,69.58
2023-02-27T18:25:59.823Z,69.72
2023-02-27T18:28:26.668Z,69.83
2023-02-27T18:30:55.186Z,69.80
2023-02-27T18:33:37.988Z,69.65
2023-02-27T18:36:04.711Z,70.46
2023-02-27T18:38:31.086Z,70.46
2023-02-27T18:40:57.490Z,71.08
2023-02-27T18:43:26.848Z,70.94
2023-02-27T18:45:53.428Z,71.37
2023-02-27T18:48:29.127Z,71.04
2023-02-27T18:51:00.553Z,71.24
2023-02-27T18:53:35.606Z,71.04
2023-02-27T18:56:13.433Z,70.93
2023-02-27T18:58:42.292Z,71.75
2023-02-27T19:01:18.232Z,71.88
2023-02-27T19:03:44.707Z,71.45
2023-02-27T19:06:12.210Z,71.60
2023-02-27T19:08:38.609Z,72.04
2023-02-27T19:11:25.855Z,71.73
2023-02-27T19:13:54.468Z,72.00
2023-02-27T19:16:20.885Z,72.08
2023-02-27T19:18:47.525Z,72.43
2023-02-27T19:21:14.160Z,72.29
2023-02-27T19:23:40.651Z,72.20
2023-02-27T19:26:07.123Z,72.88
2023-02-27T19:28:33.760Z,73.25
2023-02-27T19:31:00.225Z,73.28
2023-02-27T19:33:26.636Z,73.22
2023-02-27T19:35:53.033Z,73.04
2023-02-27T19:38:19.404Z,72.69
2023-02-27T19:40:45.812Z,72.58
2023-02-27T19:43:15.173Z,72.38
2023-02-27T19:45:42.097Z,72.42
2023-02-27T19:48:09.052Z,72.20
2023-02-27T19:50:35.467Z,71.92
2023-02-27T19:53:01.850Z,72.34
2023-02-27T19:55:28.235Z,71.91
2023-02-27T19:57:54.694Z,72.21
2023-02-27T20:00:21.809Z,72.43
2023-02-27T20:02:48.189Z,72.36
2023-02-27T20:05:14.684Z,72.59
2023-02-27T20:07:42.323Z,72.73
2023-02-27T20:10:10.082Z,72.75
2023-02-27T20:12:36.500Z,72.68
2023-02-27T20:15:08.668Z,73.22
2023-02-27T20:17:35.515Z,73.38
2023-02-27T20:20:02.142Z,73.32
2023-02-27T20:22:28.508Z,73.31
2023-02-27T20:24:57.602Z,73.22
2023-02-27T20:27:24.067Z,73.13
2023-02-27T20:29:54.753Z,73.28
2023-02-27T20:32:23.108Z,73.85
2023-02-27T20:34:50.507Z,73.60
2023-02-27T20:37:17.420Z,73.68
2023-02-27T20:39:45.124Z,73.65
2023-02-27T20:42:12.333Z,74.13
2023-02-27T20:44:38.782Z,74.30
2023-02-27T20:47:05.123Z,73.94
2023-02-27T20:49:31.526Z,74.39
2023-02-27T20:51:58.594Z,74.27
2023-02-27T20:54:25.047Z,74.75
2023-02-27T20:56:52.458Z,75.01
2023-02-27T20:59:20.626Z,75.26
2023-02-27T21:01:51.897Z,75.46
2023-02-27T21:04:42.016Z,75.74
2023-02-27T21:07:17.144Z,76.07
2023-02-27T21:09:44.155Z,76.08
2023-02-27T21:12:11.204Z,76.03
2023-02-27T21:14:37.674Z,75.78
2023-02-27T21:17:05.253Z,76.38
2023-02-27T21:19:31.805Z,76.49
2023-02-27T21:21:58.186Z,76.82
2023-02-27T21:24:24.567Z,76.79
2023-02-27T21:26:50.914Z,76.89
2023-02-27T21:29:20.559Z,77.13
2023-02-27T21:31:49.267Z,77.38
2023-02-27T21:34:20.425Z,77.25
2023-02-27T21:36:47.437Z,77.36
2023-02-27T21:39:17.157Z,77.71
2023-02-27T21:41:44.261Z,77.67
2023-02-27T21:44:13.905Z,78.11
2023-02-27T21:46:40.692Z,77.96
2023-02-27T21:49:07.066Z,78.07
2023-02-27T21:51:40.518Z,78.00
2023-02-27T21:54:10.652Z,78.51
2023-02-27T21:56:37.918Z,78.54
2023-02-27T21:59:04.927Z,78.37
2023-02-27T22:01:32.077Z,78.50
2023-02-27T22:03:59.043Z,79.01
2023-02-27T22:06:29.279Z,78.69
2023-02-27T22:08:56.697Z,79.01
2023-02-27T22:11:24.590Z,79.37
2023-02-27T22:13:51.118Z,79.38
2023-02-27T22:16:18.220Z,78.90
2023-02-27T22:18:44.730Z,79.10
2023-02-27T22:21:16.170Z,79.43
2023-02-27T22:23:43.453Z,79.62
2023-02-27T22:26:12.730Z,79.21
2023-02-27T22:28:41.214Z,79.33
2023-02-27T22:31:12.501Z,79.50
2023-02-27T22:33:40.915Z,79.73
2023-02-27T22:36:20.153Z,79.64
2023-02-27T22:38:46.918Z,79.95
2023-02-27T22:41:16.213Z,80.28
2023-02-27T22:43:44.808Z,80.14
2023-02-27T22:46:13.058Z,80.03
2023-02-27T22:48:40.322Z,80.12
2023-02-27T22:51:12.700Z,80.29
2023-02-27T22:53:39.642Z,80.39
2023-02-27T22:56:08.058Z,80.77
2023-02-27T22:58:37.194Z,80.34
2023-02-27T23:01:10.720Z,80.27
2023-02-27T23:03:37.905Z,80.79
2023-02-27T23:06:09.538Z,81.05
2023-02-27T23:08:36.461Z,80.88
2023-02-27T23:11:03.773Z,81.23
2023-02-27T23:13:32.001Z,81.12
2023-02-27T23:15:59.599Z,81.11
2023-02-27T23:18:26.026Z,81.39
2023-02-27T23:20:52.412Z,80.99
2023-02-27T23:23:18.757Z,81.28
2023-02-27T23:25:45.123Z,81.21
2023-02-27T23:28:12.034Z,81.74
2023-02-27T23:30:38.377Z,81.88
2023-02-27T23:33:04.748Z,81.72
2023-02-27T23:35:31.373Z,82.15
2023-02-27T23:37:59.118Z,82.05
2023-02-27T23:40:27.049Z,82.27
2023-02-27T23:42:54.208Z,82.27
2023-02-27T23:45:23.499Z,82.06
2023-02-27T23:48:01.214Z,82.44
2023-02-27T23:50:34.963Z,82.32
2023-02-27T23:53:01.640Z,82.66
2023-02-27T23:55:30.155Z,82.56
2023-02-27T23:57:58.424Z,82.89
